createdAt,value
2022-10-13T00:01:45.425Z,101212.16
2022-10-13T00:05:00.619Z,101229.91
2022-10-13T00:08:19.084Z,101236.59
2022-10-13T00:11:31.628Z,101235.25
2022-10-13T00:14:40.193Z,101237.41
2022-10-13T00:17:48.615Z,101230.97
2022-10-13T00:20:57.188Z,101222.91
2022-10-13T00:24:05.628Z,101226.37
2022-10-13T00:27:14.178Z,101225.56
2022-10-13T00:30:22.606Z,101223.16
2022-10-13T00:33:37.623Z,101220.72
2022-10-13T00:36:46.158Z,101217.81
2022-10-13T00:39:54.607Z,101222.38
2022-10-13T00:43:11.719Z,101231.75
2022-10-13T00:46:14.473Z,101230.44
2022-10-13T00:49:29.647Z,101228.56
2022-10-13T00:52:39.599Z,101236.28
2022-10-13T00:55:50.036Z,101225.56
2022-10-13T00:58:59.622Z,101229.84
2022-10-13T01:02:08.939Z,101223.94
2022-10-13T01:05:25.632Z,101222.06
2022-10-13T01:08:35.623Z,101227.44
2022-10-13T01:12:09.632Z,101223.94
2022-10-13T01:15:32.646Z,101219.91
2022-10-13T01:18:58.640Z,101221.00
2022-10-13T01:22:43.614Z,101224.47
2022-10-13T01:26:25.599Z,101231.41
2022-10-13T01:29:40.268Z,101233.81
2022-10-13T01:33:16.622Z,101229.50
2022-10-13T01:36:44.606Z,101230.03
2022-10-13T01:39:55.185Z,101231.13
2022-10-13T01:43:16.643Z,101227.34
2022-10-13T01:46:35.633Z,101207.78
2022-10-13T01:49:52.627Z,101221.47
2022-10-13T01:53:04.163Z,101210.19
2022-10-13T01:56:18.631Z,101214.19
2022-10-13T01:59:21.176Z,101211.28
2022-10-13T02:02:43.607Z,101210.47
2022-10-13T02:06:04.662Z,101212.87
2022-10-13T02:09:36.067Z,101211.53
2022-10-13T02:12:57.630Z,101205.09
2022-10-13T02:16:13.610Z,101200.56
2022-10-13T02:19:22.799Z,101198.12
2022-10-13T02:22:43.606Z,101200.78
2022-10-13T02:25:58.654Z,101209.38
2022-10-13T02:29:07.626Z,101210.97
2022-10-13T02:32:22.625Z,101205.91
2022-10-13T02:35:31.758Z,101213.66
2022-10-13T02:38:39.623Z,101204.81
2022-10-13T02:41:48.104Z,101206.44
2022-10-13T02:45:02.629Z,101207.75
2022-10-13T02:48:11.647Z,101203.72
2022-10-13T02:51:20.155Z,101205.34
2022-10-13T02:54:34.640Z,101209.59
2022-10-13T02:57:49.626Z,101208.81
2022-10-13T03:01:13.192Z,101214.69
2022-10-13T03:04:21.601Z,101207.19
2022-10-13T03:07:43.637Z,101204.75
2022-10-13T03:10:58.617Z,101213.59
2022-10-13T03:14:06.620Z,101209.87
2022-10-13T03:17:21.608Z,101208.72
2022-10-13T03:20:29.653Z,101213.31
2022-10-13T03:23:38.159Z,101201.47
2022-10-13T03:26:46.611Z,101202.53
2022-10-13T03:29:55.107Z,101198.78
2022-10-13T03:33:03.621Z,101210.00
2022-10-13T03:36:19.623Z,101212.63
2022-10-13T03:39:34.620Z,101208.38
2022-10-13T03:42:49.618Z,101205.41
2022-10-13T03:45:58.154Z,101197.16
2022-10-13T03:49:13.617Z,101183.16
2022-10-13T03:52:23.014Z,101203.50
2022-10-13T03:55:31.614Z,101196.28
2022-10-13T03:58:40.189Z,101199.44
2022-10-13T04:01:54.683Z,101203.72
2022-10-13T04:05:40.620Z,101197.00
2022-10-13T04:09:02.613Z,101193.50
2022-10-13T04:12:11.620Z,101201.78
2022-10-13T04:15:26.614Z,101196.63
2022-10-13T04:18:34.623Z,101194.72
2022-10-13T04:21:49.614Z,101186.47
2022-10-13T04:24:51.361Z,101184.34
2022-10-13T04:28:05.617Z,101185.94
2022-10-13T04:31:14.438Z,101190.50
2022-10-13T04:34:29.613Z,101187.81
2022-10-13T04:37:45.303Z,101192.59
2022-10-13T04:40:47.170Z,101186.75
2022-10-13T04:44:01.624Z,101187.25
2022-10-13T04:47:03.381Z,101185.66
2022-10-13T04:50:18.639Z,101198.50
2022-10-13T04:53:34.630Z,101193.69
2022-10-13T04:56:36.726Z,101191.50
2022-10-13T04:59:51.611Z,101187.78
2022-10-13T05:02:53.391Z,101188.28
2022-10-13T05:06:08.619Z,101194.72
2022-10-13T05:09:30.621Z,101192.56
2022-10-13T05:12:32.411Z,101193.56
2022-10-13T05:15:47.624Z,101188.53
2022-10-13T05:19:02.610Z,101192.00
2022-10-13T05:22:04.370Z,101191.19
2022-10-13T05:25:18.611Z,101188.25
2022-10-13T05:28:34.671Z,101190.13
2022-10-13T05:31:36.887Z,101194.16
2022-10-13T05:34:53.639Z,101192.56
2022-10-13T05:38:01.630Z,101190.69
2022-10-13T05:41:12.866Z,101193.37
2022-10-13T05:44:27.632Z,101191.75
2022-10-13T05:47:35.669Z,101198.19
2022-10-13T05:50:50.634Z,101196.63
2022-10-13T05:54:10.646Z,101196.63
2022-10-13T05:57:26.756Z,101197.25
2022-10-13T06:00:42.700Z,101204.00
2022-10-13T06:03:46.504Z,101208.34
2022-10-13T06:07:01.660Z,101212.69
2022-10-13T06:10:23.650Z,101214.91
2022-10-13T06:13:31.660Z,101194.03
2022-10-13T06:16:46.640Z,101230.00
2022-10-13T06:19:55.126Z,101218.75
2022-10-13T06:23:09.632Z,101222.53
2022-10-13T06:26:24.632Z,101223.63
2022-10-13T06:29:33.323Z,101226.56
2022-10-13T06:32:47.748Z,101232.22
2022-10-13T06:36:02.621Z,101215.34
2022-10-13T06:39:04.634Z,101223.16
2022-10-13T06:42:19.858Z,101236.03
2022-10-13T06:45:28.175Z,101228.81
2022-10-13T06:48:36.617Z,101231.22
2022-10-13T06:51:45.202Z,101235.00
2022-10-13T06:54:53.627Z,101233.94
2022-10-13T06:58:08.649Z,101229.13
2022-10-13T07:01:17.378Z,101224.28
2022-10-13T07:04:25.624Z,101228.56
2022-10-13T07:07:40.860Z,101226.94
2022-10-13T07:10:49.617Z,101231.22
2022-10-13T07:13:58.236Z,101225.56
2022-10-13T07:17:12.627Z,101218.28
2022-10-13T07:20:28.674Z,101228.97
2022-10-13T07:23:37.619Z,101216.78
2022-10-13T07:26:46.122Z,101218.59
2022-10-13T07:29:54.631Z,101219.50
2022-10-13T07:33:09.619Z,101215.91
2022-10-13T07:36:18.821Z,101215.78
2022-10-13T07:39:26.657Z,101215.56
2022-10-13T07:42:35.363Z,101211.34
2022-10-13T07:45:43.636Z,101218.72
2022-10-13T07:49:02.779Z,101222.59
2022-10-13T07:52:11.284Z,101225.72
2022-10-13T07:55:20.577Z,101220.81
2022-10-13T07:58:29.480Z,101223.69
2022-10-13T08:05:35.637Z,101229.87
2022-10-13T08:08:50.857Z,101223.94
2022-10-13T08:12:05.627Z,101217.38
2022-10-13T08:19:12.660Z,101218.69
2022-10-13T08:22:28.540Z,101210.59
2022-10-13T08:29:31.702Z,101208.19
2022-10-13T08:32:40.456Z,101198.63
2022-10-13T08:35:55.645Z,101191.78
2022-10-13T08:39:03.887Z,101200.09
2022-10-13T08:42:25.626Z,101193.81
2022-10-13T08:45:41.486Z,101188.44
2022-10-13T08:48:56.604Z,101192.03
2022-10-13T08:52:12.652Z,101203.75
2022-10-13T08:55:27.211Z,101195.38
2022-10-13T08:58:43.665Z,101189.34
2022-10-13T09:01:46.080Z,101192.28
2022-10-13T09:05:00.652Z,101192.97
2022-10-13T09:08:26.602Z,101186.72
2022-10-13T09:11:40.285Z,101183.41
2022-10-13T09:15:15.632Z,101176.66
2022-10-13T09:18:18.827Z,101174.97
2022-10-13T09:21:33.623Z,101182.47
2022-10-13T09:24:35.486Z,101172.34
2022-10-13T09:28:15.633Z,101170.06
2022-10-13T09:31:34.625Z,101167.97
2022-10-13T09:34:42.647Z,101174.19
2022-10-13T09:38:10.852Z,101167.84
2022-10-13T09:41:26.603Z,101168.28
2022-10-13T09:44:35.432Z,101157.97
2022-10-13T09:51:49.641Z,101153.31
2022-10-13T09:59:14.643Z,101157.53
2022-10-13T10:02:55.728Z,101154.97
2022-10-13T10:06:00.652Z,101138.87
2022-10-13T10:09:37.710Z,101145.13
2022-10-13T10:12:51.628Z,101147.06
2022-10-13T10:16:17.643Z,101146.25
2022-10-13T10:20:04.163Z,101134.72
2022-10-13T10:23:21.641Z,101124.03
2022-10-13T10:26:51.622Z,101122.84
2022-10-13T10:30:25.455Z,101117.06
2022-10-13T10:34:15.395Z,101122.09
2022-10-13T10:37:49.639Z,101118.87
2022-10-13T10:41:21.215Z,101116.84
2022-10-13T10:44:40.919Z,101090.63
2022-10-13T10:48:01.670Z,101116.03
2022-10-13T10:51:41.896Z,101098.75
2022-10-13T10:54:49.715Z,101097.28
2022-10-13T10:58:10.771Z,101087.91
2022-10-13T11:02:00.661Z,101087.25
2022-10-13T11:09:19.811Z,101078.31
2022-10-13T11:16:44.640Z,101070.16
2022-10-13T11:31:20.653Z,101047.44
2022-10-13T11:34:38.663Z,101046.03
2022-10-13T11:38:06.377Z,101040.63
2022-10-13T11:45:46.654Z,101032.94
2022-10-13T11:53:20.666Z,101012.97
2022-10-13T11:56:39.599Z,101009.31
2022-10-13T12:12:01.685Z,100998.78
2022-10-13T12:15:31.375Z,100994.31
2022-10-13T12:19:27.941Z,100996.97
2022-10-13T12:22:40.184Z,100985.63
2022-10-13T12:25:54.692Z,100989.25
2022-10-13T12:29:16.668Z,100986.56
2022-10-13T12:32:40.697Z,100977.47
2022-10-13T12:35:49.235Z,100969.00
2022-10-13T12:39:14.696Z,100973.97
2022-10-13T12:42:16.976Z,100973.66
2022-10-13T12:45:37.770Z,100968.81
2022-10-13T12:48:52.799Z,100965.31
2022-10-13T12:52:03.868Z,100968.69
2022-10-13T12:55:22.671Z,100962.22
2022-10-13T12:58:40.702Z,100965.41
2022-10-13T13:01:42.711Z,100959.31
2022-10-13T13:04:57.745Z,100946.78
2022-10-13T13:08:28.550Z,100959.25
2022-10-13T13:11:42.674Z,100954.16
2022-10-13T13:15:23.657Z,100950.97
2022-10-13T13:18:31.183Z,100951.78
2022-10-13T13:21:46.820Z,100947.94
2022-10-13T13:25:01.698Z,100936.31
2022-10-13T13:28:12.851Z,100939.50
2022-10-13T13:31:23.687Z,100930.59
2022-10-13T13:34:32.235Z,100941.97
2022-10-13T13:37:50.711Z,100937.53
2022-10-13T13:41:02.924Z,100934.50
2022-10-13T13:44:12.203Z,100927.66
2022-10-13T13:47:30.704Z,100927.81
2022-10-13T13:50:35.916Z,100926.53
2022-10-13T13:53:50.706Z,100912.38
2022-10-13T13:57:05.699Z,100917.81
2022-10-13T14:00:08.287Z,100917.97
2022-10-13T14:03:22.815Z,100924.50
2022-10-13T14:06:25.130Z,100923.56
2022-10-13T14:09:43.708Z,100915.56
2022-10-13T14:13:05.722Z,100912.53
2022-10-13T14:16:17.217Z,100916.19
2022-10-13T14:19:31.703Z,100919.41
2022-10-13T14:22:40.293Z,100915.06
2022-10-13T14:25:48.680Z,100909.53
2022-10-13T14:28:57.565Z,100909.53
2022-10-13T14:32:12.708Z,100910.12
2022-10-13T14:35:27.712Z,100909.31
2022-10-13T14:38:42.891Z,100907.56
2022-10-13T14:41:51.243Z,100911.72
2022-10-13T14:44:59.696Z,100899.75
2022-10-13T14:48:08.262Z,100910.78
2022-10-13T14:51:17.696Z,100911.09
2022-10-13T14:54:26.352Z,100908.53
2022-10-13T14:57:40.692Z,100899.28
2022-10-13T15:00:43.583Z,100894.34
2022-10-13T15:03:58.737Z,100899.44
2022-10-13T15:07:00.482Z,100890.69
2022-10-13T15:10:16.782Z,100892.75
2022-10-13T15:13:31.935Z,100887.63
2022-10-13T15:16:40.716Z,100895.56
2022-10-13T15:19:55.701Z,100892.50
2022-10-13T15:23:04.397Z,100897.25
2022-10-13T15:26:13.719Z,100890.00
2022-10-13T15:29:22.251Z,100889.84
2022-10-13T15:32:30.693Z,100886.78
2022-10-13T15:35:45.772Z,100884.31
2022-10-13T15:38:54.277Z,100888.41
2022-10-13T15:42:02.709Z,100890.13
2022-10-13T15:45:17.723Z,100890.03
2022-10-13T15:48:26.353Z,100888.66
2022-10-13T15:51:34.714Z,100890.03
2022-10-13T15:54:49.701Z,100890.91
2022-10-13T15:57:58.735Z,100889.53
2022-10-13T16:01:15.777Z,100886.56
2022-10-13T16:04:36.370Z,100870.84
2022-10-13T16:07:40.328Z,100886.22
2022-10-13T16:10:54.730Z,100882.97
2022-10-13T16:14:02.975Z,100886.19
2022-10-13T16:21:22.714Z,100884.66
2022-10-13T16:24:31.169Z,100881.37
2022-10-13T16:31:31.713Z,100883.66
2022-10-13T16:34:40.347Z,100894.37
2022-10-13T16:37:54.693Z,100897.22
2022-10-13T16:41:08.058Z,100884.94
2022-10-13T16:44:16.697Z,100890.22
2022-10-13T16:48:08.744Z,100889.19
